Time;durP1;ratioP1;P1;durP2;ratioP2;P2;SDS_P1;SDS_P2;PMS_P1;PMS_P2;Temp;Humidity;BMP_temperature;BMP_pressure;BME280_temperature;BME280_humidity;BME280_pressure;Samples;Min_cycle;Max_cycle;Signal;HPM_P1;HPM_P2
2023/12/25 00:00:04;;;;;;;17.85;3.20;;;;;;;5.77;100.00;98698.44;5006817;28;20472;-66
2023/12/25 00:02:34;;;;;;;18.33;3.50;;;;;;;5.62;100.00;98713.06;5014869;28;20157;-66
2023/12/25 00:05:01;;;;;;;13.25;3.00;;;;;;;5.63;100.00;98719.91;5014839;28;20052;-65
2023/12/25 00:07:28;;;;;;;11.60;2.60;;;;;;;5.65;100.00;98708.56;5015623;28;20543;-65
2023/12/25 00:09:55;;;;;;;12.15;2.75;;;;;;;5.73;100.00;98730.69;5014006;28;20521;-66
2023/12/25 00:12:23;;;;;;;23.23;5.10;;;;;;;5.65;100.00;98726.72;5014503;28;20076;-65
2023/12/25 00:14:50;;;;;;;23.90;4.80;;;;;;;5.72;100.00;98724.66;5015215;28;20456;-65
2023/12/25 00:17:17;;;;;;;11.00;2.72;;;;;;;5.79;100.00;98718.25;5013140;28;20058;-65
2023/12/25 00:19:44;;;;;;;10.68;2.55;;;;;;;5.87;100.00;98738.63;5013484;28;20074;-64
2023/12/25 00:22:11;;;;;;;20.00;5.28;;;;;;;5.70;100.00;98742.91;5005551;28;20064;-64
2023/12/25 00:24:37;;;;;;;16.98;3.22;;;;;;;5.77;100.00;98748.66;5012467;28;20094;-64
2023/12/25 00:27:04;;;;;;;11.02;2.60;;;;;;;5.78;100.00;98760.72;5012709;28;20061;-64
2023/12/25 00:29:31;;;;;;;12.07;2.60;;;;;;;5.80;100.00;98777.03;5013422;28;20092;-64
2023/12/25 00:31:58;;;;;;;12.98;3.22;;;;;;;5.77;100.00;98763.38;5010070;28;20068;-64
2023/12/25 00:34:24;;;;;;;12.98;2.65;;;;;;;5.75;100.00;98781.63;5012198;28;20053;-64
2023/12/25 00:36:51;;;;;;;11.70;2.70;;;;;;;5.68;100.00;98793.22;5012146;28;20037;-64
2023/12/25 00:39:18;;;;;;;9.88;2.20;;;;;;;5.58;100.00;98794.56;5010948;28;20045;-64
2023/12/25 00:41:44;;;;;;;19.08;2.90;;;;;;;5.58;100.00;98802.38;5011590;28;20065;-64
2023/12/25 00:44:11;;;;;;;16.38;2.85;;;;;;;5.49;100.00;98793.28;5011801;28;20056;-64
2023/12/25 00:46:38;;;;;;;13.00;3.00;;;;;;;5.48;100.00;98797.63;5003755;28;20052;-64
2023/12/25 00:49:05;;;;;;;9.95;2.28;;;;;;;5.51;100.00;98812.22;5009341;28;20373;-64
2023/12/25 00:51:31;;;;;;;10.80;2.40;;;;;;;5.45;100.00;98800.38;5002523;28;20157;-64
2023/12/25 00:54:00;;;;;;;11.13;2.70;;;;;;;5.41;100.00;98801.44;5006239;28;20100;-64
2023/12/25 00:56:27;;;;;;;9.63;2.33;;;;;;;5.51;100.00;98810.47;5010885;28;20043;-65
2023/12/25 00:58:54;;;;;;;18.00;3.53;;;;;;;5.33;100.00;98811.34;5007293;28;20141;-65
2023/12/25 01:01:21;;;;;;;14.05;2.60;;;;;;;5.38;100.00;98808.50;5007246;28;20484;-65
2023/12/25 01:03:47;;;;;;;10.45;2.65;;;;;;;5.38;100.00;98813.72;5009542;28;20435;-65
2023/12/25 01:06:14;;;;;;;12.75;2.90;;;;;;;5.22;100.00;98798.84;5005770;28;20058;-65
2023/12/25 01:08:40;;;;;;;10.05;2.40;;;;;;;5.32;100.00;98807.06;5007440;28;20057;-65
2023/12/25 01:11:07;;;;;;;13.65;2.50;;;;;;;5.08;100.00;98796.91;5001191;28;20116;-65
2023/12/25 01:13:34;;;;;;;10.15;2.53;;;;;;;5.22;100.00;98835.16;5008576;28;20050;-65
2023/12/25 01:16:01;;;;;;;13.15;2.60;;;;;;;5.18;100.00;98831.03;5003655;28;20075;-65
2023/12/25 01:18:27;;;;;;;14.40;3.15;;;;;;;5.31;100.00;98836.50;5011817;28;20054;-65
2023/12/25 01:20:54;;;;;;;13.93;3.30;;;;;;;5.21;100.00;98850.84;5009383;28;20049;-65
2023/12/25 01:23:21;;;;;;;15.98;2.85;;;;;;;5.22;100.00;98837.75;5009313;28;20045;-65
2023/12/25 01:25:48;;;;;;;21.38;3.42;;;;;;;5.01;100.00;98839.59;5009116;28;20060;-65
2023/12/25 01:28:15;;;;;;;10.00;2.38;;;;;;;5.16;100.00;98848.44;5009711;28;20104;-65
2023/12/25 01:30:41;;;;;;;10.48;3.22;;;;;;;5.19;100.00;98848.31;4995666;28;20078;-65
2023/12/25 01:33:08;;;;;;;14.38;2.67;;;;;;;5.03;100.00;98842.97;5007017;28;20057;-65
2023/12/25 01:35:35;;;;;;;10.18;2.25;;;;;;;5.16;100.00;98856.22;5008367;28;20112;-65
2023/12/25 01:38:03;;;;;;;16.20;3.55;;;;;;;5.20;100.00;98864.69;5010729;28;20061;-65
2023/12/25 01:40:29;;;;;;;14.80;3.10;;;;;;;4.95;100.00;98856.25;5005356;28;20350;-65
2023/12/25 01:42:56;;;;;;;16.65;2.83;;;;;;;5.12;100.00;98871.09;5003380;28;20065;-65
2023/12/25 01:45:23;;;;;;;9.43;2.38;;;;;;;4.97;100.00;98834.63;5010789;28;20092;-65
2023/12/25 01:47:50;;;;;;;14.77;2.97;;;;;;;4.97;100.00;98865.75;5011525;28;20260;-65
2023/12/25 01:50:17;;;;;;;18.02;2.92;;;;;;;4.93;100.00;98865.88;5008948;28;20656;-65
2023/12/25 01:52:44;;;;;;;13.48;2.42;;;;;;;4.94;100.00;98843.38;5010205;28;20042;-65
2023/12/25 01:55:11;;;;;;;12.70;2.92;;;;;;;5.11;100.00;98871.16;5009260;28;20465;-65
2023/12/25 01:57:40;;;;;;;12.15;2.67;;;;;;;5.22;100.00;98876.69;5009507;28;20042;-65
2023/12/25 02:00:07;;;;;;;12.77;2.88;;;;;;;5.12;100.00;98883.22;5000543;28;20053;-65
2023/12/25 02:02:34;;;;;;;15.50;3.13;;;;;;;4.82;100.00;98849.94;5005665;28;20050;-65
2023/12/25 02:05:01;;;;;;;11.73;2.53;;;;;;;5.07;100.00;98887.78;5008115;28;20057;-65
2023/12/25 02:07:29;;;;;;;11.73;2.90;;;;;;;5.00;100.00;98881.19;5004699;28;20046;-65
2023/12/25 02:09:56;;;;;;;14.27;3.10;;;;;;;4.98;100.00;98881.25;5009864;28;20050;-65
2023/12/25 02:12:22;;;;;;;14.88;3.08;;;;;;;4.98;100.00;98891.63;5010056;28;20045;-65
2023/12/25 02:14:49;;;;;;;10.85;2.35;;;;;;;5.07;100.00;98903.34;5009864;28;20053;-65
2023/12/25 02:17:17;;;;;;;11.93;2.30;;;;;;;5.03;100.00;98902.63;5008058;28;20060;-65
2023/12/25 02:19:45;;;;;;;9.23;2.45;;;;;;;4.99;100.00;98905.41;5009422;28;20054;-65
2023/12/25 02:22:12;;;;;;;9.57;2.08;;;;;;;5.00;100.00;98902.75;5009414;28;20132;-65
2023/12/25 02:24:58;;;;;;;18.35;3.25;;;;;;;5.03;100.00;98914.75;5008407;28;20069;-65
2023/12/25 02:27:25;;;;;;;10.07;2.35;;;;;;;4.95;100.00;98909.91;5010072;28;20515;-65
2023/12/25 02:29:52;;;;;;;16.63;2.50;;;;;;;4.97;100.00;98933.19;5005160;28;20057;-65
2023/12/25 02:32:18;;;;;;;9.85;2.15;;;;;;;4.94;100.00;98936.75;4973043;28;20050;-65
2023/12/25 02:34:47;;;;;;;7.13;1.92;;;;;;;4.82;100.00;98914.78;5001065;28;20046;-65
2023/12/25 02:37:14;;;;;;;10.80;2.45;;;;;;;5.05;100.00;98941.47;5010070;28;20053;-65
2023/12/25 02:39:40;;;;;;;12.93;2.75;;;;;;;5.11;100.00;98951.56;5009389;28;20054;-65
2023/12/25 02:42:07;;;;;;;6.13;1.63;;;;;;;4.86;100.00;98946.59;5007471;28;20050;-65
2023/12/25 02:44:34;;;;;;;8.27;2.05;;;;;;;4.91;100.00;98944.66;5009866;28;20056;-65
2023/12/25 02:47:00;;;;;;;15.90;2.63;;;;;;;4.78;100.00;98951.25;5009730;28;20050;-65
2023/12/25 02:49:27;;;;;;;10.40;2.20;;;;;;;4.88;100.00;98957.75;5009423;28;20411;-65
2023/12/25 02:51:54;;;;;;;10.07;1.73;;;;;;;5.04;100.00;98974.34;4996569;28;20046;-65
2023/12/25 02:54:20;;;;;;;13.80;2.35;;;;;;;4.96;100.00;98976.44;5006775;28;20468;-65
2023/12/25 02:56:47;;;;;;;18.02;2.97;;;;;;;5.08;100.00;98975.91;5008601;28;20053;-65
2023/12/25 02:59:14;;;;;;;13.48;2.20;;;;;;;4.95;100.00;98969.56;5003871;28;20054;-65
2023/12/25 03:01:40;;;;;;;9.88;1.90;;;;;;;5.01;100.00;98971.03;5001679;28;20069;-65
2023/12/25 03:04:07;;;;;;;10.45;2.35;;;;;;;4.91;100.00;98976.63;5009497;28;20050;-65
2023/12/25 03:06:34;;;;;;;25.90;2.95;;;;;;;4.95;100.00;98990.28;4997038;28;20081;-65
2023/12/25 03:09:01;;;;;;;13.88;2.00;;;;;;;4.94;100.00;98979.09;4999511;28;20049;-65
2023/12/25 03:11:27;;;;;;;9.88;2.03;;;;;;;5.03;100.00;98985.63;4999193;28;20053;-65
2023/12/25 03:13:54;;;;;;;9.75;2.58;;;;;;;5.08;100.00;98983.69;5009326;28;20089;-65
2023/12/25 03:16:21;;;;;;;10.13;2.65;;;;;;;5.07;100.00;98986.34;5008845;28;20499;-64
2023/12/25 03:18:47;;;;;;;6.43;1.80;;;;;;;5.07;100.00;99005.34;5004174;28;20377;-64
2023/12/25 03:21:15;;;;;;;7.97;2.00;;;;;;;5.09;100.00;98990.53;5003080;28;20069;-64
2023/12/25 03:23:41;;;;;;;4.88;1.52;;;;;;;4.87;100.00;98956.06;5003076;28;20042;-64
2023/12/25 03:26:08;;;;;;;7.22;1.70;;;;;;;4.86;100.00;98988.94;5002198;28;20100;-64
2023/12/25 03:28:34;;;;;;;8.38;2.13;;;;;;;4.87;100.00;98984.59;5008776;28;20046;-65
2023/12/25 03:31:01;;;;;;;6.50;1.60;;;;;;;4.84;100.00;98993.34;4995092;28;20057;-66
2023/12/25 03:33:28;;;;;;;10.13;2.10;;;;;;;4.77;100.00;98991.91;5007702;28;20096;-65
2023/12/25 03:35:54;;;;;;;8.73;1.80;;;;;;;4.82;100.00;99002.13;5004420;28;20058;-64
2023/12/25 03:38:22;;;;;;;11.05;1.90;;;;;;;4.85;100.00;99018.38;5009124;28;20112;-64
2023/12/25 03:40:50;;;;;;;7.28;2.75;;;;;;;4.73;100.00;99031.84;5008187;28;20113;-64
2023/12/25 03:43:16;;;;;;;14.80;2.33;;;;;;;4.72;100.00;99025.81;5008728;28;20098;-64
2023/12/25 03:45:43;;;;;;;7.88;2.17;;;;;;;4.54;100.00;99021.38;5008201;28;20494;-64
2023/12/25 03:48:10;;;;;;;11.38;2.25;;;;;;;4.57;100.00;99023.84;5009110;28;20049;-64
2023/12/25 03:50:36;;;;;;;9.70;2.30;;;;;;;4.57;100.00;99022.09;5003410;28;20061;-64
2023/12/25 03:53:03;;;;;;;8.43;1.88;;;;;;;4.52;100.00;99034.41;5007722;28;20112;-65
2023/12/25 03:55:30;;;;;;;7.78;1.70;;;;;;;4.46;100.00;99037.25;4998162;28;20388;-65
2023/12/25 03:57:56;;;;;;;8.63;2.42;;;;;;;4.40;100.00;99036.63;5008501;28;20041;-64
2023/12/25 04:00:23;;;;;;;7.10;1.77;;;;;;;4.29;100.00;99011.16;5001891;28;20583;-64
2023/12/25 04:02:50;;;;;;;8.75;1.70;;;;;;;4.45;100.00;99047.66;5007102;28;20204;-65
2023/12/25 04:05:18;;;;;;;7.55;1.80;;;;;;;4.35;100.00;99045.41;5009557;28;20057;-65
2023/12/25 04:07:45;;;;;;;14.55;2.28;;;;;;;4.31;100.00;99045.63;5005133;28;20082;-65
2023/12/25 04:10:11;;;;;;;8.82;1.80;;;;;;;4.38;100.00;99047.91;5010807;28;20073;-65
2023/12/25 04:12:38;;;;;;;11.75;2.25;;;;;;;4.34;100.00;99050.69;5011945;28;20049;-65
2023/12/25 04:15:06;;;;;;;11.07;2.40;;;;;;;4.30;100.00;99049.09;5012209;28;20383;-65
2023/12/25 04:17:32;;;;;;;7.88;1.42;;;;;;;4.30;100.00;99049.97;5010065;28;20050;-65
2023/12/25 04:19:59;;;;;;;7.82;1.70;;;;;;;4.22;100.00;99051.16;5011064;28;20057;-64
2023/12/25 04:22:26;;;;;;;5.80;1.63;;;;;;;4.10;100.00;99042.94;4998875;28;20081;-65
2023/12/25 04:24:53;;;;;;;11.32;2.80;;;;;;;4.13;100.00;99050.59;5011010;28;20599;-65
2023/12/25 04:27:19;;;;;;;6.90;1.92;;;;;;;3.98;100.00;99043.41;5012259;28;20438;-65
2023/12/25 04:29:46;;;;;;;8.18;1.85;;;;;;;4.08;100.00;99042.16;5007739;28;20403;-65
2023/12/25 04:32:13;;;;;;;10.85;4.22;;;;;;;4.17;100.00;99056.50;4997505;28;20057;-64
2023/12/25 04:34:40;;;;;;;15.02;2.45;;;;;;;4.12;100.00;99046.31;5012523;28;20108;-65
2023/12/25 04:37:06;;;;;;;6.13;1.88;;;;;;;4.26;100.00;99040.59;5010622;28;20103;-65
2023/12/25 04:39:33;;;;;;;6.20;1.60;;;;;;;4.45;100.00;99039.91;5012425;28;20408;-65
2023/12/25 04:42:00;;;;;;;5.78;1.95;;;;;;;4.52;100.00;99051.72;5009652;28;20107;-64
2023/12/25 04:44:27;;;;;;;7.88;1.90;;;;;;;4.48;100.00;99044.94;5010595;28;20104;-65
2023/12/25 04:46:54;;;;;;;12.38;2.10;;;;;;;4.63;100.00;99039.16;5012071;28;20053;-65
2023/12/25 04:49:20;;;;;;;8.45;1.85;;;;;;;4.67;100.00;99040.69;5005000;28;20054;-65
2023/12/25 04:51:47;;;;;;;9.75;2.25;;;;;;;4.81;100.00;99040.16;5009155;28;20699;-65
2023/12/25 04:54:14;;;;;;;6.30;1.77;;;;;;;4.83;100.00;99038.31;5010964;28;20050;-65
2023/12/25 04:56:40;;;;;;;9.63;1.63;;;;;;;4.91;100.00;99040.63;5001666;28;20423;-65
2023/12/25 04:59:09;;;;;;;7.03;1.48;;;;;;;4.80;100.00;99032.41;5009650;28;20103;-65
2023/12/25 05:01:36;;;;;;;5.88;1.80;;;;;;;4.88;100.00;99040.75;5006831;28;20080;-65
2023/12/25 05:04:03;;;;;;;6.15;1.73;;;;;;;4.97;100.00;99060.28;5011563;28;20049;-65
2023/12/25 05:06:30;;;;;;;8.50;1.80;;;;;;;4.74;100.00;99057.69;5007033;28;20060;-65
2023/12/25 05:08:56;;;;;;;14.23;2.42;;;;;;;4.74;100.00;99064.63;5005642;28;20141;-65
2023/12/25 05:11:23;;;;;;;7.45;1.80;;;;;;;4.79;100.00;99064.47;5003878;28;20052;-65
2023/12/25 05:13:50;;;;;;;6.65;1.67;;;;;;;4.77;100.00;99069.72;5010399;28;20050;-65
2023/12/25 05:16:17;;;;;;;6.28;1.45;;;;;;;4.67;100.00;99068.38;5002301;28;20460;-65
2023/12/25 05:18:44;;;;;;;8.35;1.80;;;;;;;4.65;100.00;99075.38;5010869;28;20134;-65
2023/12/25 05:21:10;;;;;;;8.82;1.67;;;;;;;4.53;100.00;99066.34;5008405;28;20387;-65
2023/12/25 05:23:37;;;;;;;4.70;1.50;;;;;;;4.60;100.00;99077.31;5010747;28;20049;-65
2023/12/25 05:26:04;;;;;;;9.90;2.42;;;;;;;4.59;100.00;99081.66;5009038;28;20089;-65
2023/12/25 05:28:30;;;;;;;8.80;2.47;;;;;;;4.30;100.00;99062.91;5008252;28;20054;-65
2023/12/25 05:30:57;;;;;;;7.28;1.90;;;;;;;4.38;100.00;99071.22;5007788;28;20053;-65
2023/12/25 05:33:24;;;;;;;7.38;1.73;;;;;;;4.43;100.00;99088.34;5011050;28;20661;-65
2023/12/25 05:35:51;;;;;;;7.82;1.38;;;;;;;4.28;100.00;99093.19;5002904;28;20397;-65
2023/12/25 05:38:18;;;;;;;6.75;1.90;;;;;;;4.05;100.00;99085.47;4994081;28;20161;-65
2023/12/25 05:40:45;;;;;;;7.45;1.83;;;;;;;3.83;100.00;99086.25;5008708;28;20080;-65
2023/12/25 05:43:12;;;;;;;6.25;1.70;;;;;;;3.82;100.00;99076.78;5010600;28;20050;-65
2023/12/25 05:45:38;;;;;;;6.22;1.60;;;;;;;3.80;100.00;99084.59;5011465;28;20060;-65
2023/12/25 05:48:06;;;;;;;5.35;1.65;;;;;;;3.77;100.00;99091.63;5010988;28;20108;-65
2023/12/25 05:50:32;;;;;;;6.88;1.70;;;;;;;3.68;100.00;99102.31;5007021;28;20053;-65
2023/12/25 05:52:59;;;;;;;7.55;2.20;;;;;;;3.58;100.00;99102.66;5010250;28;20057;-65
2023/12/25 05:55:26;;;;;;;6.57;1.83;;;;;;;3.50;100.00;99103.81;5009855;28;20054;-65
2023/12/25 05:57:52;;;;;;;3.28;1.25;;;;;;;3.61;100.00;99109.44;5009539;28;20046;-65
2023/12/25 06:00:20;;;;;;;3.97;1.40;;;;;;;3.54;100.00;99107.97;4997857;28;20057;-65
2023/12/25 06:02:46;;;;;;;4.78;1.52;;;;;;;3.61;100.00;99109.44;5007947;28;20127;-65
2023/12/25 06:05:13;;;;;;;6.63;1.50;;;;;;;3.68;100.00;99104.91;5005634;28;20046;-65
2023/12/25 06:07:40;;;;;;;8.05;2.00;;;;;;;3.73;100.00;99115.94;5010390;28;20084;-65
2023/12/25 06:10:07;;;;;;;7.38;1.63;;;;;;;3.83;100.00;99109.56;5008626;28;20050;-65
2023/12/25 06:12:34;;;;;;;4.88;1.52;;;;;;;3.77;100.00;99115.81;5003439;28;20554;-66
2023/12/25 06:15:05;;;;;;;7.05;1.42;;;;;;;3.87;100.00;99120.63;5009769;28;20046;-66
2023/12/25 06:17:32;;;;;;;5.60;1.60;;;;;;;3.76;100.00;99101.16;5009984;28;20061;-66
2023/12/25 06:19:59;;;;;;;4.85;1.45;;;;;;;3.76;100.00;99113.25;5007314;28;20073;-65
2023/12/25 06:22:26;;;;;;;10.77;2.00;;;;;;;3.70;100.00;99111.75;5007566;28;20429;-66
2023/12/25 06:24:55;;;;;;;7.82;1.80;;;;;;;3.60;100.00;99105.19;5008268;28;20736;-65
2023/12/25 06:27:22;;;;;;;7.65;2.45;;;;;;;3.67;100.00;99116.19;4995160;28;20084;-65
2023/12/25 06:29:49;;;;;;;3.20;1.40;;;;;;;3.65;100.00;99097.25;5000758;28;20058;-66
2023/12/25 06:32:16;;;;;;;4.80;1.73;;;;;;;3.60;100.00;99107.78;4997786;28;20415;-65
2023/12/25 06:34:42;;;;;;;5.85;1.80;;;;;;;3.58;100.00;99105.25;5003375;28;20054;-66
2023/12/25 06:37:09;;;;;;;6.47;2.15;;;;;;;3.53;100.00;99104.56;5001861;28;20081;-66
2023/12/25 06:39:36;;;;;;;8.50;1.73;;;;;;;3.50;100.00;99098.66;4993859;28;20061;-66
2023/12/25 06:42:03;;;;;;;6.60;1.73;;;;;;;3.38;100.00;99087.84;4992974;28;20053;-65
2023/12/25 06:44:29;;;;;;;4.55;1.50;;;;;;;3.41;100.00;99099.81;4999606;28;20145;-66
2023/12/25 06:46:56;;;;;;;6.10;1.58;;;;;;;3.34;100.00;99099.16;4993361;28;20164;-66
2023/12/25 06:49:23;;;;;;;5.00;1.55;;;;;;;3.40;100.00;99111.06;5006815;28;20137;-66
2023/12/25 06:51:50;;;;;;;6.57;1.60;;;;;;;3.39;100.00;99105.03;4991988;28;20582;-65
2023/12/25 06:54:17;;;;;;;6.28;1.60;;;;;;;3.41;100.00;99095.47;5005095;28;20400;-65
2023/12/25 06:56:44;;;;;;;4.82;1.60;;;;;;;3.41;100.00;99097.22;5001894;28;20058;-66
2023/12/25 06:59:10;;;;;;;7.68;2.25;;;;;;;3.53;100.00;99095.97;5004617;28;20081;-66
2023/12/25 07:01:37;;;;;;;6.78;2.33;;;;;;;3.53;100.00;99094.22;4996490;28;20108;-65
2023/12/25 07:04:04;;;;;;;5.20;1.30;;;;;;;3.54;100.00;99103.66;5003084;28;20068;-65
2023/12/25 07:06:31;;;;;;;7.70;1.60;;;;;;;3.57;100.00;99103.53;4997016;28;20061;-66
2023/12/25 07:08:58;;;;;;;4.40;1.65;;;;;;;3.58;100.00;99109.59;5008047;28;20417;-65
2023/12/25 07:11:24;;;;;;;5.88;1.40;;;;;;;3.61;100.00;99106.88;5003298;28;20037;-66
2023/12/25 07:13:51;;;;;;;7.72;1.60;;;;;;;3.51;100.00;99113.28;4997327;28;20153;-66
2023/12/25 07:16:22;;;;;;;5.60;1.50;;;;;;;3.60;100.00;99116.38;5004043;28;20049;-66
2023/12/25 07:18:53;;;;;;;5.68;1.52;;;;;;;3.60;100.00;99116.38;4995203;28;20360;-66
2023/12/25 07:21:21;;;;;;;5.28;1.50;;;;;;;3.58;100.00;99128.53;4992903;28;20050;-65
2023/12/25 07:23:47;;;;;;;7.22;2.08;;;;;;;3.50;100.00;99140.88;4993217;28;20070;-66
2023/12/25 07:26:19;;;;;;;7.00;1.67;;;;;;;3.48;100.00;99132.34;5003659;28;20053;-65
2023/12/25 07:28:46;;;;;;;13.63;2.35;;;;;;;3.59;100.00;99127.66;5005907;28;20190;-66
2023/12/25 07:31:14;;;;;;;6.25;1.70;;;;;;;3.47;100.00;99103.91;4999931;28;20054;-65
2023/12/25 07:33:41;;;;;;;5.05;1.70;;;;;;;3.68;100.00;99138.56;4995550;28;20042;-66
2023/12/25 07:36:09;;;;;;;9.57;1.88;;;;;;;3.76;100.00;99119.28;4990928;28;20516;-66
2023/12/25 07:38:37;;;;;;;6.70;1.80;;;;;;;3.83;100.00;99132.03;5006065;28;20045;-66
2023/12/25 07:41:08;;;;;;;4.85;1.50;;;;;;;3.79;100.00;99136.47;4998545;28;20058;-66
2023/12/25 07:43:35;;;;;;;11.50;1.75;;;;;;;3.78;100.00;99132.16;5009179;28;20057;-65
2023/12/25 07:46:06;;;;;;;5.78;1.50;;;;;;;3.75;100.00;99134.84;5012425;28;20395;-66
2023/12/25 07:48:33;;;;;;;7.90;3.60;;;;;;;3.77;100.00;99133.06;5008490;28;20061;-66
2023/12/25 07:51:01;;;;;;;5.60;1.55;;;;;;;3.81;100.00;99152.78;5010191;28;20053;-66
2023/12/25 07:53:28;;;;;;;8.98;2.05;;;;;;;3.73;100.00;99140.09;5012985;28;20065;-66
2023/12/25 07:55:55;;;;;;;8.65;2.05;;;;;;;3.82;100.00;99151.03;4992643;28;20137;-66
2023/12/25 07:58:21;;;;;;;18.80;3.42;;;;;;;3.69;100.00;99146.28;5010653;28;20488;-66
2023/12/25 08:00:48;;;;;;;8.88;2.20;;;;;;;3.78;100.00;99156.31;5008435;28;20046;-66
2023/12/25 08:03:15;;;;;;;6.55;2.78;;;;;;;3.73;100.00;99157.38;5012605;28;20056;-66
2023/12/25 08:05:42;;;;;;;8.80;2.42;;;;;;;3.58;100.00;99148.41;5000817;28;20495;-65
2023/12/25 08:08:10;;;;;;;10.05;2.30;;;;;;;3.68;100.00;99164.44;5005522;28;20626;-66
2023/12/25 08:10:37;;;;;;;7.53;2.10;;;;;;;3.56;100.00;99165.69;4997296;28;20061;-65
2023/12/25 08:13:04;;;;;;;6.97;2.35;;;;;;;3.54;100.00;99162.31;4994275;28;20141;-65
2023/12/25 08:15:30;;;;;;;12.45;2.15;;;;;;;3.47;100.00;99151.38;5003277;28;20065;-66
2023/12/25 08:17:59;;;;;;;7.90;2.00;;;;;;;3.42;100.00;99159.25;5011467;28;20050;-66
2023/12/25 08:20:26;;;;;;;10.50;2.30;;;;;;;3.39;100.00;99150.75;5007652;28;20060;-65
2023/12/25 08:22:53;;;;;;;4.57;1.70;;;;;;;3.39;100.00;99163.69;5001779;28;20140;-65
2023/12/25 08:25:19;;;;;;;7.65;1.95;;;;;;;3.35;100.00;99162.13;5010725;28;20053;-65
2023/12/25 08:27:46;;;;;;;8.45;1.92;;;;;;;3.24;100.00;99167.66;5008911;28;20499;-65
2023/12/25 08:30:13;;;;;;;7.47;2.25;;;;;;;3.19;100.00;99174.72;5006313;28;20046;-65
2023/12/25 08:32:40;;;;;;;7.93;1.88;;;;;;;3.18;100.00;99173.84;5011095;28;20168;-65
2023/12/25 08:35:06;;;;;;;6.85;1.73;;;;;;;3.03;100.00;99162.25;5010981;28;20508;-65
2023/12/25 08:37:33;;;;;;;6.82;1.80;;;;;;;2.93;100.00;99163.44;5011316;28;20076;-65
2023/12/25 08:40:00;;;;;;;4.82;1.63;;;;;;;2.87;100.00;99165.38;5010776;28;20072;-65
2023/12/25 08:42:26;;;;;;;5.93;1.60;;;;;;;2.81;100.00;99171.56;4999415;28;20353;-65
2023/12/25 08:44:53;;;;;;;7.03;3.20;;;;;;;2.68;100.00;99165.09;5011265;28;20053;-65
2023/12/25 08:47:20;;;;;;;12.80;2.17;;;;;;;2.64;100.00;99164.34;5005110;28;20053;-65
2023/12/25 08:49:46;;;;;;;5.55;1.40;;;;;;;2.62;100.00;99163.53;5011456;28;20085;-65
2023/12/25 08:52:13;;;;;;;11.05;3.38;;;;;;;2.66;100.00;99172.91;5005597;28;20440;-65
2023/12/25 08:54:40;;;;;;;5.43;1.83;;;;;;;2.72;100.00;99161.53;4993403;28;20408;-65
2023/12/25 08:57:07;;;;;;;6.55;1.95;;;;;;;2.68;100.00;99158.19;5005776;28;20061;-65
2023/12/25 08:59:34;;;;;;;7.53;2.00;;;;;;;2.71;100.00;99152.94;5010705;28;20053;-65
2023/12/25 09:02:00;;;;;;;10.25;2.83;;;;;;;2.57;100.00;99145.59;5006628;28;20080;-65
2023/12/25 09:04:27;;;;;;;14.93;4.25;;;;;;;2.47;100.00;99149.34;5007393;28;20050;-65
2023/12/25 09:06:54;;;;;;;9.65;2.88;;;;;;;2.29;100.00;99132.66;5005080;28;20236;-65
2023/12/25 09:09:22;;;;;;;10.93;3.38;;;;;;;2.41;100.00;99149.53;5011271;28;20133;-65
2023/12/25 09:11:49;;;;;;;8.20;2.97;;;;;;;2.47;100.00;99160.53;5007448;28;20050;-64
2023/12/25 09:14:16;;;;;;;11.52;3.42;;;;;;;2.43;100.00;99161.50;5009770;28;20050;-65
2023/12/25 09:16:43;;;;;;;9.32;3.70;;;;;;;2.47;100.00;99157.09;5003493;28;20571;-65
2023/12/25 09:19:09;;;;;;;12.68;3.50;;;;;;;2.50;100.00;99171.66;5008147;28;20503;-65
2023/12/25 09:21:39;;;;;;;9.05;3.35;;;;;;;2.50;100.00;99164.75;5008573;28;20053;-65
2023/12/25 09:24:06;;;;;;;10.80;3.72;;;;;;;2.55;100.00;99156.84;5006540;28;20057;-65
2023/12/25 09:26:33;;;;;;;11.70;3.70;;;;;;;2.64;100.00;99144.53;5010373;28;20104;-65
2023/12/25 09:29:00;;;;;;;9.82;4.22;;;;;;;2.58;100.00;99156.78;5008183;28;20547;-65
2023/12/25 09:31:26;;;;;;;10.15;4.00;;;;;;;2.69;100.00;99151.28;5006690;28;20210;-65
2023/12/25 09:33:53;;;;;;;10.73;4.40;;;;;;;2.80;100.00;99154.41;5011484;28;20057;-65
2023/12/25 09:36:20;;;;;;;13.80;4.63;;;;;;;2.88;100.00;99151.56;5008893;28;20049;-65
2023/12/25 09:38:46;;;;;;;12.15;4.00;;;;;;;2.97;100.00;99153.84;5010499;28;20472;-65
2023/12/25 09:41:14;;;;;;;11.32;3.90;;;;;;;3.13;100.00;99152.44;5008076;28;20073;-65
2023/12/25 09:43:45;;;;;;;9.63;4.03;;;;;;;3.24;100.00;99157.31;5009904;28;20480;-65
2023/12/25 09:46:13;;;;;;;11.20;4.13;;;;;;;3.22;100.00;99152.19;5010216;28;20050;-65
2023/12/25 09:48:40;;;;;;;15.60;5.40;;;;;;;3.25;100.00;99143.47;5010342;28;20046;-65
2023/12/25 09:51:09;;;;;;;14.48;3.92;;;;;;;3.36;100.00;99154.28;5009015;28;20061;-65
2023/12/25 09:53:36;;;;;;;13.77;4.30;;;;;;;3.48;100.00;99136.66;5004950;28;20424;-65
2023/12/25 09:56:09;;;;;;;12.90;3.80;;;;;;;3.56;100.00;99127.75;5010132;28;20108;-65
2023/12/25 09:58:38;;;;;;;10.53;3.70;;;;;;;3.62;100.00;99129.28;5008841;28;20109;-65
2023/12/25 10:01:05;;;;;;;11.75;4.18;;;;;;;3.62;100.00;99118.91;5007579;28;20057;-65
2023/12/25 10:03:33;;;;;;;10.57;3.63;;;;;;;3.65;100.00;99124.00;5009792;28;20057;-65
2023/12/25 10:06:00;;;;;;;10.82;3.67;;;;;;;3.61;100.00;99114.63;5010665;28;20057;-65
2023/12/25 10:08:27;;;;;;;11.20;4.45;;;;;;;3.71;100.00;99126.34;5009967;28;20042;-65
2023/12/25 10:10:54;;;;;;;11.10;4.05;;;;;;;3.59;100.00;99121.59;5007083;28;20049;-65
2023/12/25 10:13:28;;;;;;;12.32;4.05;;;;;;;3.64;100.00;99118.88;5010174;28;20049;-65
2023/12/25 10:15:55;;;;;;;10.93;3.67;;;;;;;3.75;100.00;99103.78;5009876;28;20042;-65
2023/12/25 10:18:22;;;;;;;10.70;4.07;;;;;;;3.85;100.00;99112.09;5006765;28;20050;-65
2023/12/25 10:20:59;;;;;;;12.88;3.88;;;;;;;3.89;100.00;99096.38;5008744;28;20050;-65
2023/12/25 10:23:34;;;;;;;13.55;3.72;;;;;;;3.99;100.00;99096.88;4993493;28;20058;-65
2023/12/25 10:26:03;;;;;;;9.30;3.63;;;;;;;3.96;100.00;99094.41;5006369;28;20046;-65
2023/12/25 10:28:33;;;;;;;10.48;2.90;;;;;;;3.96;100.00;99084.88;5008563;28;20053;-65
2023/12/25 10:31:04;;;;;;;8.13;2.67;;;;;;;4.07;100.00;99096.59;4998730;28;20161;-65
2023/12/25 10:33:34;;;;;;;8.05;2.60;;;;;;;4.16;100.00;99102.28;5010241;28;20133;-65
2023/12/25 10:36:02;;;;;;;12.07;4.40;;;;;;;4.08;100.00;99099.13;5009331;28;20625;-65
2023/12/25 10:38:31;;;;;;;12.00;3.42;;;;;;;4.03;100.00;99082.09;5008193;28;20042;-65
2023/12/25 10:40:58;;;;;;;9.43;3.05;;;;;;;4.19;100.00;99091.78;5005687;28;20112;-65
2023/12/25 10:43:25;;;;;;;10.55;3.08;;;;;;;4.18;100.00;99074.59;5006898;28;20460;-65
2023/12/25 10:45:55;;;;;;;10.98;3.88;;;;;;;4.09;100.00;99080.13;5007702;28;20413;-65
2023/12/25 10:48:24;;;;;;;9.88;3.05;;;;;;;4.19;100.00;99080.59;5008743;28;20365;-65
2023/12/25 10:50:52;;;;;;;10.10;3.40;;;;;;;4.21;100.00;99080.53;4998844;28;20506;-65
2023/12/25 10:53:20;;;;;;;12.82;3.92;;;;;;;4.16;100.00;99071.22;5001913;28;20050;-65
2023/12/25 10:55:47;;;;;;;11.13;3.85;;;;;;;4.23;100.00;99061.44;5006569;28;20487;-65
2023/12/25 10:58:16;;;;;;;9.20;3.20;;;;;;;4.42;100.00;99058.97;5009174;28;20065;-65
2023/12/25 11:00:47;;;;;;;9.20;3.53;;;;;;;4.47;100.00;99043.25;5006181;28;20045;-65
2023/12/25 11:03:15;;;;;;;10.80;4.05;;;;;;;4.50;100.00;99040.56;5008555;28;20045;-64
2023/12/25 11:05:43;;;;;;;13.02;4.82;;;;;;;4.53;100.00;99040.41;5009134;28;20056;-64
2023/12/25 11:08:13;;;;;;;20.08;9.40;;;;;;;3.97;100.00;99060.69;5007838;28;20080;-64
2023/12/25 11:10:44;;;;;;;20.88;7.88;;;;;;;3.93;100.00;99043.59;5001326;28;20146;-64
2023/12/25 11:13:12;;;;;;;28.25;9.68;;;;;;;4.19;100.00;99037.41;5009198;28;20046;-64
2023/12/25 11:15:39;;;;;;;17.33;6.65;;;;;;;4.23;100.00;99008.78;5009052;28;20503;-64
2023/12/25 11:18:09;;;;;;;13.68;4.93;;;;;;;4.45;100.00;99012.22;5008613;28;20049;-65
2023/12/25 11:20:40;;;;;;;13.23;5.55;;;;;;;4.77;100.00;99030.81;5007397;28;20042;-64
2023/12/25 11:23:07;;;;;;;11.05;4.30;;;;;;;4.79;100.00;99012.59;5003959;28;20137;-65
2023/12/25 11:25:33;;;;;;;14.30;5.30;;;;;;;4.99;100.00;99033.34;5004501;28;20061;-65
2023/12/25 11:28:04;;;;;;;13.65;5.13;;;;;;;4.90;100.00;99034.56;5003661;28;20068;-65